Corvallis, Montana
Current Conditions -  °F | °C
As of 10:53 AM on Saturday 25 Oct 2014 (Local Time) from KMSO Reporting Station
Clear Clear  
Wind Chill: 42°   Ceiling: Unl
Heat Index: 46°   Visibility: 10mi
Dew Point: 43°   Wind: 7mph
Humidity: 89%   Direction: 150°SSE
Pressure: 29.89"   Gusts: NA
Location:  46.31°N, 114.11°W
Report Text: KMSO 251653Z 15006KT 10SM CLR 08/06 A2989 RMK AO2 SLP131 T00780061
Loading
Personal Weather Stations






























Interactive Weather Map
Tropical Storm Tracking
New forecast layout! Learn more

10-Day Weather Forecast

Advertisements
Track Severe Weather on mobile